Gifford, Washington
Current Conditions -  °F | °C
As of 12:53 PM on Sunday 21 Dec 2014 (Local Time) from KDEW Reporting Station
Clear Clear  
Wind Chill: 42°   Ceiling: Unl
Heat Index: 48°   Visibility: 10mi
Dew Point: 35°   Wind: 17mph
Humidity: 61%   Direction: 240°WSW
Pressure: 29.78"   Gusts: NA
Location:  48.31°N, 118.15°W
Report Text: KDEW 212053Z AUTO 24015KT 10SM CLR 09/02 A2978 RMK AO2 SLP089 T00890017 52011
Loading
Personal Weather Stations






























Interactive Weather Map New forecast layout! Learn more

10-Day Weather Forecast

Advertisements
Track Severe Weather on mobile